EPGD

Gdańsk Lech Wałęsa Airport

Gdańsk, Poland
METAR EPGD 191630Z 24007KT 9999 FEW011 BKN024 M00/M02 Q1017 R11/290095
Observed Flight Rules
Jan-19 @ 16:30 UTC (37 minutes ago) Marginal Visual Flight Rules
Wind Visibility Clouds
240° at 7 knots 10,000+ meters
  • Few at 1,100' AGL
  • Broken at 2,400' AGL
Temperatures Readings
Current 0°C / 32°F
Dewpoint -2°C / 28°F
Humidity 87%
Altimeter 30.03" Hg
Pressure 1016.92 hPa
Elevation 138
METAR EPGD 191630Z 24007KT 9999 FEW011 BKN024 M00/M02 Q1017 R11/290095
Observed Flight Rules
Jan-19 @ 16:30 UTC
(37 minutes ago)
MVFR
Wind Visibility
240° at 7 knots 10,000+ meters
Clouds
  • Few at 1,100' AGL
  • Broken at 2,400' AGL
Temperature Dewpoint
0°C / 32°F -2°C / 28°F
Humidity Altimeter Pressure
87% 30.03" Hg 1016.92 hPa